AirNav   Free Bose QuietComfort 20
 
 1490 users online  

NE71 Immanuel Medical Center Heliport
Omaha, Nebraska, USA

GOING TO OMAHA?


FAA INFORMATION EFFECTIVE 05 DECEMBER 2019

Location

FAA Identifier: NE71
Lat/Long: 41-19-18.7100N 096-01-15.6500W
41-19.311833N 096-01.260833W
41.3218639,-96.0210139
(estimated)
Elevation: 1246 ft. / 380 m (estimated)
Variation: 06E (1985)
Time zone: UTC -6 (UTC -5 during Daylight Saving Time)
Zip code: 68152

Heliport Operations

Heliport use: Private use, MEDICAL.
Activation date: 09/1974
Control tower: no
ARTCC: MINNEAPOLIS CENTER
FSS: COLUMBUS FLIGHT SERVICE STATION
Attendance: CONTINUOUS
Wind indicator: no
Segmented circle: no

Heliport Communications

WX ASOS at OMA (6 nm E): PHONE 402-271-7515
WX AWOS-3 at BTA (7 nm NW): 120.225 (402-426-0448)
WX AWOS-3 at MLE (9 nm SW): 118.25 (402-895-6778)
WX AWOS-3 at CBF (12 nm E): 126.575 (712-323-1542)

Nearby radio navigation aids

VOR radial/distance  VOR name  Freq  Var
OVRr298/15.8OMAHA VORTAC116.3008E
SCBr116/32.2SCRIBNER VOR/DME111.0006E

 
NDB name  Hdg/Dist  Freq  Var  ID
PLATTSMOUTH343/23.232905EPMV .--. -- ...-
WAHOO073/26.540006EAHQ .- .... --.-

Heliport Services

Airframe service: NONE
Powerplant service: NONE

Runway Information

Helipad H1

Dimensions: 50 x 50 ft. / 15 x 15 m
Surface: concrete
Latitude: 41-19.311833N
Longitude: 096-01.260833W
Elevation: 1246.0 ft.
Traffic pattern: leftleft
Obstructions: bldg, 21 ft. from runway

Heliport Ownership and Management from official FAA records

Ownership: Privately-owned
Owner: IMMANUEL MEDICAL CENTER
6901 N 72ND ST
OMAHA, NE 68122
Phone (402) 572-2010
Manager: CAROL MCCORMICK
6901 N 72ND ST
OMAHA, NE 68122
Phone (402) 572-2010

Additional Remarks

FOR CD CTC OMAHA APCH AT 402-682-4395.

Instrument Procedures

There are no published instrument procedures at NE71.

Some nearby airports with instrument procedures:

KOMA - Eppley Airfield (6 nm E)
KBTA - Blair Municipal Airport (7 nm NW)
KMLE - Millard Airport (9 nm SW)
KCBF - Council Bluffs Municipal Airport (12 nm E)
KOFF - Offutt Air Force Base (13 nm SE)
 
Loc | Ops | Rwys | IFR | FBO | Links
Com | Nav | Svcs | Stats | Notes

Silverhawk Aviation, Inc.
AirBoss

 
Area around NE71 (Immanuel Medical Center Heliport)
 
Road maps at: MapQuest Bing Google
 
Aerial photo
No photo
 
Sectional chart

 
Airport distance calculator
Flying to Immanuel Medical Center Heliport? Find the distance to fly.

From to NE71

Sunrise and sunset
Times for 06-Dec-2019
 Local
(UTC-6)
 Zulu
(UTC)
Morning civil twilight07:0613:06
Sunrise07:3713:37
Sunset16:5422:54
Evening civil twilight17:2523:25

Current date and time
Zulu (UTC)  06-Dec-2019 16:24:23
Local (UTC-6)  06-Dec-2019 10:24:23
 
METAR
KOMA 
5nm E 
061552Z 35011KT 10SM SCT014 BKN200 M03/M07 A3044 RMK AO2 SLP320 T10331067
KBTA 
7nm NW 
061555Z AUTO 35007G15KT 10SM OVC010 M03/M06 A3042 RMK AO2 T10351057
KMLE 
9nm SW 
061555Z AUTO 01005KT 10SM CLR M02/M06 A3045 RMK AO2 T10201064
KCBF 
12nm E 
061555Z AUTO 35009KT 10SM CLR M04/M06 A3041 RMK AO2
KOFF 
13nm S 
061556Z 35006KT 10SM CLR M03/M08 A3045 RMK AO2A SLP329 RVRNO $
TAF
KOMA 
5nm E 
061317Z 0613/0712 35014KT P6SM SCT015 FM061500 01010KT P6SM OVC015 FM061900 02010KT P6SM SCT020 FM062300 15006KT P6SM FEW250
KOFF 
13nm S 
061252Z 0612/0716 34012G18KT 9999 BKN015 620154 QNH3032INS BECMG 0613/0614 34009KT 9999 SCT015 QNH3032INS BECMG 0616/0617 34009KT 9999 FEW010 SCT200 QNH3041INS BECMG 0619/0620 VRB06KT 9999 SKC QNH3027INS BECMG 0714/0715 18011KT 9999 SKC QNH3023INS TX04/0621Z TNM04/0614Z
NOTAMs
Click for the latest NOTAMs
NOTAMs are issued by the DoD/FAA and will open in a separate window not controlled by AirNav.

 

 
 

Would you like to see your business listed on this page?

 If your business provides an interesting product or service to pilots, flight crews, aircraft, or users of the Immanuel Medical Center Heliport, you should consider listing it here.  To start the listing process, click on the button below
 
Add a business
 

Other Pages about Immanuel Medical Center Heliport

Update a link
 
Copyright © AirNav, LLC. All rights reserved. Privacy Policy  Contact